createdAt,value
2023-05-14T00:01:31.251Z,61.80
2023-05-14T00:04:03.254Z,61.59
2023-05-14T00:06:37.095Z,62.19
2023-05-14T00:09:08.911Z,63.10
2023-05-14T00:11:40.743Z,62.17
2023-05-14T00:14:18.144Z,62.06
2023-05-14T00:16:50.006Z,62.12
2023-05-14T00:19:21.838Z,62.36
2023-05-14T00:21:55.160Z,62.81
2023-05-14T00:24:27.048Z,61.94
2023-05-14T00:26:58.858Z,63.10
2023-05-14T00:29:30.861Z,62.75
2023-05-14T00:32:04.342Z,63.53
2023-05-14T00:34:36.544Z,63.76
2023-05-14T00:37:09.866Z,63.52
2023-05-14T00:39:41.732Z,64.16
2023-05-14T00:42:13.704Z,64.24
2023-05-14T00:44:45.499Z,64.39
2023-05-14T00:47:17.711Z,64.30
2023-05-14T00:49:50.572Z,64.60
2023-05-14T00:52:25.406Z,64.88
2023-05-14T00:54:57.849Z,65.80
2023-05-14T00:57:29.718Z,65.64
2023-05-14T01:00:02.930Z,65.28
2023-05-14T01:02:34.689Z,65.83
2023-05-14T01:05:08.443Z,66.19
2023-05-14T01:07:50.527Z,67.02
2023-05-14T01:10:33.561Z,67.18
2023-05-14T01:13:14.064Z,66.10
2023-05-14T01:15:48.541Z,66.20
2023-05-14T01:18:25.015Z,66.95
2023-05-14T01:20:57.438Z,66.43
2023-05-14T01:23:30.613Z,66.90
2023-05-14T01:26:02.457Z,66.29
2023-05-14T01:28:39.623Z,67.25
2023-05-14T01:31:19.748Z,67.26
2023-05-14T01:33:55.576Z,67.29
2023-05-14T01:36:28.499Z,67.98
2023-05-14T01:39:03.622Z,68.07
2023-05-14T01:41:36.512Z,67.79
2023-05-14T01:44:09.006Z,68.08
2023-05-14T01:46:40.706Z,68.41
2023-05-14T01:49:12.502Z,68.89
2023-05-14T01:51:44.586Z,68.74
2023-05-14T01:54:17.516Z,69.20
2023-05-14T01:56:49.342Z,68.74
2023-05-14T01:59:21.185Z,69.74
2023-05-14T02:01:53.164Z,68.35
2023-05-14T02:04:24.845Z,69.70
2023-05-14T02:06:56.481Z,70.44
2023-05-14T02:09:30.630Z,70.19
2023-05-14T02:12:02.553Z,70.37
2023-05-14T02:14:34.480Z,69.86
2023-05-14T02:17:06.363Z,70.72
2023-05-14T02:19:38.277Z,70.26
2023-05-14T02:22:11.077Z,70.20
2023-05-14T02:24:44.217Z,69.59
2023-05-14T02:27:16.036Z,68.41
2023-05-14T02:29:47.981Z,69.73
2023-05-14T02:32:19.821Z,69.23
2023-05-14T02:34:51.593Z,69.37
2023-05-14T02:37:23.420Z,69.15
2023-05-14T02:39:56.705Z,69.79
2023-05-14T02:42:28.512Z,69.64
2023-05-14T02:45:00.423Z,70.56
2023-05-14T02:47:32.333Z,70.85
2023-05-14T02:50:06.344Z,70.61
2023-05-14T02:52:37.899Z,70.50
2023-05-14T02:55:13.308Z,70.69
2023-05-14T02:57:45.126Z,70.48
2023-05-14T03:00:17.515Z,71.33
2023-05-14T03:02:50.030Z,70.20
2023-05-14T03:05:22.329Z,71.10
2023-05-14T03:07:54.249Z,70.34
2023-05-14T03:10:27.961Z,69.88
2023-05-14T03:12:59.900Z,70.24
2023-05-14T03:15:31.700Z,70.04
2023-05-14T03:18:03.617Z,69.91
2023-05-14T03:20:35.306Z,70.31
2023-05-14T03:23:07.190Z,70.00
2023-05-14T03:25:40.154Z,70.22
2023-05-14T03:28:11.975Z,70.57
2023-05-14T03:30:43.933Z,70.71
2023-05-14T03:33:15.729Z,71.27
2023-05-14T03:35:47.616Z,71.30
2023-05-14T03:38:19.411Z,70.97
2023-05-14T03:40:52.478Z,70.87
2023-05-14T03:43:24.284Z,71.59
2023-05-14T03:45:56.088Z,71.69
2023-05-14T03:48:28.114Z,72.33
2023-05-14T03:50:59.864Z,71.83
2023-05-14T03:53:31.723Z,72.67
2023-05-14T03:56:04.737Z,72.31
2023-05-14T03:58:36.556Z,72.21
2023-05-14T04:01:08.397Z,71.69
2023-05-14T04:03:40.329Z,71.75
2023-05-14T04:06:12.186Z,71.22
2023-05-14T04:08:44.140Z,71.62
2023-05-14T04:11:17.415Z,72.12
2023-05-14T04:13:49.208Z,71.32
2023-05-14T04:16:21.071Z,71.75
2023-05-14T04:18:53.077Z,73.11
2023-05-14T04:21:24.788Z,72.06
2023-05-14T04:23:56.729Z,72.37
2023-05-14T04:26:30.210Z,73.00
2023-05-14T04:29:03.476Z,73.07
2023-05-14T04:31:35.598Z,73.10
2023-05-14T04:34:07.401Z,73.00
2023-05-14T04:36:39.370Z,72.74
2023-05-14T04:39:12.529Z,73.17
2023-05-14T04:41:45.997Z,73.68
2023-05-14T04:44:18.285Z,73.90
2023-05-14T04:46:50.390Z,73.57
2023-05-14T04:49:23.331Z,74.15
2023-05-14T04:51:56.262Z,73.95
2023-05-14T04:54:28.328Z,74.16
2023-05-14T04:57:03.275Z,74.42
2023-05-14T04:59:35.525Z,74.72
2023-05-14T05:02:07.452Z,75.32
2023-05-14T05:04:39.613Z,75.11
2023-05-14T05:07:11.373Z,74.89
2023-05-14T05:09:43.691Z,75.04
2023-05-14T05:12:16.855Z,74.94
2023-05-14T05:14:48.666Z,75.30
2023-05-14T05:17:20.741Z,74.06
2023-05-14T05:19:52.569Z,75.38
2023-05-14T05:22:24.517Z,74.90
2023-05-14T05:24:56.322Z,75.57
2023-05-14T05:27:29.525Z,75.03
2023-05-14T05:30:02.108Z,73.89
2023-05-14T05:32:33.862Z,75.42
2023-05-14T05:35:06.543Z,76.26
2023-05-14T05:37:38.882Z,76.00
2023-05-14T05:40:14.016Z,77.02
2023-05-14T05:42:47.759Z,76.29
2023-05-14T05:45:19.786Z,76.01
2023-05-14T05:47:51.683Z,76.70
2023-05-14T05:50:23.813Z,75.16
2023-05-14T05:52:55.627Z,75.75
2023-05-14T05:55:27.331Z,75.44
2023-05-14T05:58:00.270Z,75.18
2023-05-14T06:00:32.163Z,74.72
2023-05-14T06:03:04.202Z,74.67
2023-05-14T06:05:35.895Z,74.22
2023-05-14T06:08:07.781Z,74.10
2023-05-14T06:10:39.620Z,74.03
2023-05-14T06:13:12.959Z,72.92
2023-05-14T06:15:44.814Z,72.24
2023-05-14T06:18:16.738Z,71.63
2023-05-14T06:20:48.535Z,71.44
2023-05-14T06:23:20.522Z,71.06
2023-05-14T06:25:52.357Z,72.73
2023-05-14T06:28:25.336Z,72.75
2023-05-14T06:30:57.193Z,71.37
2023-05-14T06:33:31.313Z,73.61
2023-05-14T06:36:07.869Z,72.48
2023-05-14T06:38:42.183Z,71.06
2023-05-14T06:41:13.737Z,71.41
2023-05-14T06:43:46.925Z,70.52
2023-05-14T06:46:18.776Z,69.78
2023-05-14T06:48:50.663Z,70.46
2023-05-14T06:51:22.451Z,68.91
2023-05-14T06:53:54.288Z,69.68
2023-05-14T06:56:26.389Z,69.21
2023-05-14T06:59:00.202Z,68.24
2023-05-14T07:01:32.044Z,69.48
2023-05-14T07:04:03.954Z,68.42
2023-05-14T07:06:36.121Z,71.27
2023-05-14T07:09:07.963Z,69.79
2023-05-14T07:11:39.864Z,68.87
2023-05-14T07:14:12.857Z,67.24
2023-05-14T07:16:46.786Z,68.06
2023-05-14T07:19:18.584Z,68.33
2023-05-14T07:21:50.969Z,66.24
2023-05-14T07:24:23.528Z,65.44
2023-05-14T07:26:57.156Z,64.96
2023-05-14T07:29:31.167Z,64.78
2023-05-14T07:32:04.752Z,63.65
2023-05-14T07:34:36.575Z,64.21
2023-05-14T07:37:08.354Z,65.62
2023-05-14T07:39:41.645Z,64.24
2023-05-14T07:42:21.960Z,63.58
2023-05-14T07:44:58.238Z,63.34
2023-05-14T07:47:30.518Z,64.91
2023-05-14T07:50:02.642Z,62.45
2023-05-14T07:52:34.483Z,61.88
2023-05-14T07:55:06.829Z,64.11
2023-05-14T07:57:38.675Z,66.01
2023-05-14T08:00:15.917Z,61.68
2023-05-14T08:02:49.081Z,64.10
2023-05-14T08:05:21.141Z,64.33
2023-05-14T08:07:53.001Z,61.55
2023-05-14T08:10:25.091Z,59.45
2023-05-14T08:12:57.137Z,61.18
2023-05-14T08:15:30.223Z,60.83
2023-05-14T08:18:03.706Z,60.59
2023-05-14T08:20:35.672Z,58.34
2023-05-14T08:23:09.239Z,59.87
2023-05-14T08:25:40.858Z,60.29
2023-05-14T08:28:12.747Z,59.66
2023-05-14T08:30:46.025Z,58.49
2023-05-14T08:33:18.069Z,60.22
2023-05-14T08:35:51.135Z,55.33
2023-05-14T08:38:24.623Z,58.16
2023-05-14T08:41:01.476Z,56.07
2023-05-14T08:43:55.730Z,57.64
2023-05-14T08:46:34.007Z,57.00
2023-05-14T08:49:16.942Z,57.52
2023-05-14T08:51:51.525Z,53.40
2023-05-14T08:54:26.200Z,53.54
2023-05-14T08:56:59.913Z,54.26
2023-05-14T08:59:33.983Z,53.21
2023-05-14T09:02:11.140Z,54.75
2023-05-14T09:04:43.439Z,55.87
2023-05-14T09:07:15.944Z,55.46
2023-05-14T09:09:48.360Z,52.60
2023-05-14T09:12:20.069Z,49.39
2023-05-14T09:14:53.933Z,52.59
2023-05-14T09:17:28.569Z,49.00
2023-05-14T09:20:02.297Z,50.87
2023-05-14T09:22:35.910Z,48.44
2023-05-14T09:25:12.002Z,47.65
2023-05-14T09:27:50.052Z,50.76
2023-05-14T09:30:21.964Z,48.69
2023-05-14T09:32:57.092Z,47.64
2023-05-14T09:35:29.924Z,49.46
2023-05-14T09:38:01.766Z,48.33
2023-05-14T09:40:33.625Z,47.52
2023-05-14T09:43:06.108Z,48.99
2023-05-14T09:45:37.900Z,43.88
2023-05-14T09:48:11.364Z,48.36
2023-05-14T09:50:47.548Z,46.72
2023-05-14T09:53:22.138Z,44.32
2023-05-14T09:55:53.722Z,42.66
2023-05-14T09:58:27.155Z,45.24
2023-05-14T10:01:02.572Z,45.18
2023-05-14T10:03:36.241Z,42.04
2023-05-14T10:06:10.840Z,44.07
2023-05-14T10:08:49.749Z,45.71
2023-05-14T10:11:31.502Z,45.29
2023-05-14T10:14:17.912Z,47.88
2023-05-14T10:16:54.526Z,43.67
2023-05-14T10:19:32.111Z,43.95
2023-05-14T10:22:12.382Z,39.98
2023-05-14T10:24:45.894Z,39.89
2023-05-14T10:27:19.711Z,41.78
2023-05-14T10:29:57.211Z,40.54
2023-05-14T10:32:33.087Z,39.07
2023-05-14T10:35:16.714Z,37.86
2023-05-14T10:37:51.728Z,38.51
2023-05-14T10:40:26.512Z,37.89
2023-05-14T10:43:03.577Z,38.08
2023-05-14T10:45:35.547Z,36.38
2023-05-14T10:48:07.509Z,38.16
2023-05-14T10:50:42.957Z,39.12
2023-05-14T10:53:18.682Z,38.88
2023-05-14T10:55:55.562Z,38.58
2023-05-14T10:58:28.384Z,36.04
2023-05-14T11:01:00.921Z,38.15
2023-05-14T11:03:40.084Z,40.08
2023-05-14T11:06:15.889Z,38.54
2023-05-14T11:08:47.935Z,38.05
2023-05-14T11:11:20.619Z,35.51
2023-05-14T11:13:54.443Z,35.20
2023-05-14T11:16:30.800Z,37.62
2023-05-14T11:19:08.220Z,35.37
2023-05-14T11:21:42.036Z,35.73
2023-05-14T11:24:13.751Z,36.58
2023-05-14T11:26:48.749Z,36.84
2023-05-14T11:29:20.687Z,34.00
2023-05-14T11:31:54.077Z,34.83
2023-05-14T11:34:25.758Z,33.73
2023-05-14T11:36:58.998Z,34.06
2023-05-14T11:39:31.864Z,37.73
2023-05-14T11:42:05.831Z,35.33
2023-05-14T11:44:39.920Z,37.18
2023-05-14T11:47:12.226Z,35.08
2023-05-14T11:49:43.828Z,33.91
2023-05-14T11:52:21.773Z,32.13
2023-05-14T11:54:53.859Z,31.49
2023-05-14T11:57:26.332Z,33.32
2023-05-14T12:00:00.510Z,33.86
2023-05-14T12:02:32.668Z,32.84
2023-05-14T12:05:07.105Z,34.66
2023-05-14T12:07:40.200Z,34.33
2023-05-14T12:10:17.525Z,36.74
2023-05-14T12:12:52.512Z,32.49
2023-05-14T12:15:26.705Z,32.07
2023-05-14T12:17:58.278Z,32.35
2023-05-14T12:20:33.014Z,33.41
2023-05-14T12:23:06.045Z,31.62
2023-05-14T12:25:39.271Z,32.58
2023-05-14T12:28:20.453Z,34.14
2023-05-14T12:30:59.192Z,33.07
2023-05-14T12:33:31.724Z,31.80
2023-05-14T12:38:41.173Z,34.26
2023-05-14T12:41:13.171Z,30.69
2023-05-14T12:43:49.131Z,31.97
2023-05-14T12:46:20.878Z,31.01
2023-05-14T12:48:53.470Z,32.25
2023-05-14T12:51:25.196Z,32.50
2023-05-14T12:53:58.204Z,30.16
2023-05-14T12:56:32.012Z,28.87
2023-05-14T12:59:03.632Z,30.23
2023-05-14T13:01:35.543Z,32.06
2023-05-14T13:04:07.987Z,29.16
2023-05-14T13:06:39.725Z,30.24
2023-05-14T13:09:13.037Z,30.06
2023-05-14T13:11:44.680Z,30.10
2023-05-14T13:14:17.838Z,28.41
2023-05-14T13:16:52.609Z,27.57
2023-05-14T13:19:26.606Z,27.93
2023-05-14T13:21:59.823Z,28.80
2023-05-14T13:24:32.985Z,30.42
2023-05-14T13:27:04.859Z,30.62
2023-05-14T13:29:37.257Z,29.44
2023-05-14T13:32:12.462Z,30.71
2023-05-14T13:34:44.968Z,31.13
2023-05-14T13:37:16.664Z,30.79
2023-05-14T13:39:51.400Z,33.09
2023-05-14T13:42:23.626Z,31.96
2023-05-14T13:44:56.313Z,32.43
2023-05-14T13:47:29.177Z,33.96
2023-05-14T13:50:01.809Z,34.30
2023-05-14T13:52:35.166Z,36.40
2023-05-14T13:55:10.398Z,37.60
2023-05-14T13:57:43.092Z,38.79
2023-05-14T14:00:17.245Z,39.98
2023-05-14T14:02:50.581Z,39.60
2023-05-14T14:05:23.759Z,38.67
2023-05-14T14:08:00.975Z,39.51
2023-05-14T14:10:42.441Z,40.05
2023-05-14T14:13:14.470Z,39.61
2023-05-14T14:15:46.413Z,38.30
2023-05-14T14:18:19.744Z,36.45
2023-05-14T14:20:52.976Z,39.73
2023-05-14T14:23:26.229Z,38.44
2023-05-14T14:25:59.421Z,39.30
2023-05-14T14:28:31.456Z,41.06
2023-05-14T14:31:03.282Z,40.81
2023-05-14T14:33:35.131Z,40.50
2023-05-14T14:36:08.051Z,41.10
2023-05-14T14:38:40.051Z,40.09
2023-05-14T14:41:13.187Z,41.53
2023-05-14T14:43:45.354Z,39.83
2023-05-14T14:46:17.264Z,40.55
2023-05-14T14:48:49.249Z,39.57
2023-05-14T14:51:21.086Z,39.03
2023-05-14T14:53:54.351Z,41.25
2023-05-14T14:56:27.802Z,42.03
2023-05-14T14:58:59.644Z,42.12
2023-05-14T15:01:31.680Z,42.60
2023-05-14T15:04:03.693Z,42.19
2023-05-14T15:06:35.310Z,41.78
2023-05-14T15:09:09.103Z,41.73
2023-05-14T15:11:43.945Z,41.77
2023-05-14T15:14:15.765Z,41.47
2023-05-14T15:16:49.578Z,41.90
2023-05-14T15:19:22.539Z,42.46
2023-05-14T15:21:55.006Z,41.59
2023-05-14T15:24:27.192Z,42.11
2023-05-14T15:27:00.873Z,41.61
2023-05-14T15:29:32.962Z,40.67
2023-05-14T15:32:07.259Z,40.05
2023-05-14T15:34:39.211Z,40.80
2023-05-14T15:37:10.894Z,42.04
2023-05-14T15:39:44.374Z,41.89
2023-05-14T15:42:17.711Z,40.02
2023-05-14T15:44:49.622Z,40.84
2023-05-14T15:47:21.464Z,42.38
2023-05-14T15:49:53.314Z,40.57
2023-05-14T15:52:25.217Z,40.53
2023-05-14T15:54:58.574Z,40.33
2023-05-14T15:57:31.684Z,40.60
2023-05-14T16:00:10.660Z,39.38
2023-05-14T16:02:44.581Z,38.60
2023-05-14T16:05:18.985Z,40.76
2023-05-14T16:07:52.827Z,40.46
2023-05-14T16:10:26.556Z,41.22
2023-05-14T16:12:59.743Z,41.63
2023-05-14T16:15:31.674Z,40.29
2023-05-14T16:18:03.529Z,40.68
2023-05-14T16:20:35.346Z,40.44
2023-05-14T16:23:08.665Z,38.43
2023-05-14T16:25:40.660Z,39.81
2023-05-14T16:28:14.028Z,39.24
2023-05-14T16:30:45.902Z,40.04
2023-05-14T16:33:17.743Z,41.31
2023-05-14T16:35:50.528Z,41.55
2023-05-14T16:38:22.388Z,42.31
2023-05-14T16:40:54.253Z,40.69
2023-05-14T16:43:27.293Z,40.27
2023-05-14T16:45:59.302Z,39.18
2023-05-14T16:48:31.316Z,37.93
2023-05-14T16:51:02.910Z,38.37
2023-05-14T16:53:34.804Z,39.50
2023-05-14T16:56:06.728Z,40.35
2023-05-14T16:58:41.389Z,40.77
2023-05-14T17:01:13.073Z,41.03
2023-05-14T17:03:45.651Z,40.77
2023-05-14T17:06:17.783Z,40.25
2023-05-14T17:08:49.660Z,40.44
2023-05-14T17:11:21.647Z,41.93
2023-05-14T17:13:54.592Z,41.22
2023-05-14T17:16:27.099Z,41.86
2023-05-14T17:18:59.017Z,42.27
2023-05-14T17:21:30.929Z,42.28
2023-05-14T17:24:03.753Z,42.13
2023-05-14T17:26:35.691Z,41.10
2023-05-14T17:29:08.908Z,41.37
2023-05-14T17:31:40.768Z,40.99
2023-05-14T17:34:12.650Z,41.56
2023-05-14T17:36:44.565Z,41.45
2023-05-14T17:39:16.452Z,41.46
2023-05-14T17:41:48.329Z,41.41
2023-05-14T17:44:21.590Z,40.58
2023-05-14T17:46:53.528Z,40.71
2023-05-14T17:49:25.411Z,40.19
2023-05-14T17:51:57.303Z,40.90
2023-05-14T17:54:29.120Z,41.25
2023-05-14T17:57:00.991Z,41.62
2023-05-14T17:59:34.261Z,41.85
2023-05-14T18:02:07.517Z,41.83
2023-05-14T18:04:39.252Z,42.06
2023-05-14T18:07:11.038Z,41.90
2023-05-14T18:09:42.869Z,42.35
2023-05-14T18:12:14.741Z,42.60
2023-05-14T18:14:47.825Z,42.67
2023-05-14T18:17:19.659Z,42.99
2023-05-14T18:19:51.494Z,44.66
2023-05-14T18:22:23.362Z,43.90
2023-05-14T18:24:55.298Z,45.08
2023-05-14T18:27:27.189Z,45.37
2023-05-14T18:30:00.514Z,45.38
2023-05-14T18:32:32.377Z,44.97
2023-05-14T18:35:06.476Z,45.39
2023-05-14T18:37:40.085Z,44.86
2023-05-14T18:40:15.752Z,46.21
2023-05-14T18:42:49.328Z,45.40
2023-05-14T18:45:24.127Z,45.75
2023-05-14T18:47:56.051Z,45.21
2023-05-14T18:50:28.047Z,46.79
2023-05-14T18:52:59.869Z,46.11
2023-05-14T18:55:31.708Z,46.05
2023-05-14T18:58:03.685Z,46.67
2023-05-14T19:00:37.027Z,46.79
2023-05-14T19:03:08.806Z,47.60
2023-05-14T19:05:40.580Z,47.71
2023-05-14T19:08:12.863Z,48.03
2023-05-14T19:10:44.777Z,47.84
2023-05-14T19:13:16.904Z,48.52
2023-05-14T19:15:50.162Z,49.09
2023-05-14T19:18:23.756Z,48.89
2023-05-14T19:20:57.185Z,49.81
2023-05-14T19:23:32.597Z,49.52
2023-05-14T19:26:06.835Z,50.07
2023-05-14T19:28:40.828Z,49.50
2023-05-14T19:31:13.888Z,49.35
2023-05-14T19:33:47.166Z,50.04
2023-05-14T19:36:20.580Z,50.31
2023-05-14T19:38:53.946Z,49.68
2023-05-14T19:41:27.744Z,50.37
2023-05-14T19:44:00.959Z,51.78
2023-05-14T19:46:33.954Z,51.33
2023-05-14T19:49:07.271Z,51.53
2023-05-14T19:51:40.674Z,52.30
2023-05-14T19:54:14.620Z,52.86
2023-05-14T19:56:47.919Z,52.45
2023-05-14T19:59:21.180Z,52.76
2023-05-14T20:01:54.487Z,53.80
2023-05-14T20:04:28.152Z,53.49
2023-05-14T20:07:01.829Z,53.69
2023-05-14T20:09:35.086Z,54.33
2023-05-14T20:12:10.766Z,53.81
2023-05-14T20:14:44.763Z,54.91
2023-05-14T20:17:17.920Z,55.41
2023-05-14T20:19:52.195Z,55.19
2023-05-14T20:22:25.975Z,54.24
2023-05-14T20:24:59.578Z,54.83
2023-05-14T20:27:33.065Z,53.96
2023-05-14T20:30:07.773Z,54.34
2023-05-14T20:32:41.008Z,54.91
2023-05-14T20:35:15.312Z,55.09
2023-05-14T20:37:49.466Z,54.94
2023-05-14T20:40:23.143Z,54.51
2023-05-14T20:42:56.688Z,55.10
2023-05-14T20:45:29.947Z,55.66
2023-05-14T20:48:06.035Z,55.94
2023-05-14T20:50:39.572Z,57.06
2023-05-14T20:53:12.919Z,57.38
2023-05-14T20:55:46.278Z,56.63
2023-05-14T20:58:20.391Z,56.61
2023-05-14T21:00:53.921Z,58.16
2023-05-14T21:03:27.133Z,57.45
2023-05-14T21:06:00.560Z,57.63
2023-05-14T21:08:34.965Z,56.74
2023-05-14T21:11:08.489Z,57.16
2023-05-14T21:13:43.801Z,56.61
2023-05-14T21:16:17.206Z,56.76
2023-05-14T21:18:50.493Z,57.29
2023-05-14T21:21:23.724Z,56.83
2023-05-14T21:23:57.201Z,56.57
2023-05-14T21:26:36.777Z,57.54
2023-05-14T21:29:10.506Z,57.59
2023-05-14T21:31:44.142Z,57.58
2023-05-14T21:34:17.964Z,56.94
2023-05-14T21:36:51.329Z,56.97
2023-05-14T21:39:25.952Z,57.76
2023-05-14T21:41:59.137Z,57.71
2023-05-14T21:44:32.379Z,57.91
2023-05-14T21:47:06.335Z,58.48
2023-05-14T21:49:39.403Z,58.26
2023-05-14T21:52:13.307Z,58.50
2023-05-14T21:54:46.499Z,57.92
2023-05-14T21:57:20.379Z,58.47
2023-05-14T21:59:53.644Z,58.38
2023-05-14T22:02:27.079Z,58.75
2023-05-14T22:05:00.194Z,58.63
2023-05-14T22:07:34.027Z,58.21
2023-05-14T22:10:07.356Z,58.82
2023-05-14T22:12:40.618Z,58.82
2023-05-14T22:15:15.460Z,59.14
2023-05-14T22:17:48.758Z,58.61
2023-05-14T22:20:22.070Z,59.39
2023-05-14T22:22:55.526Z,59.08
2023-05-14T22:25:28.831Z,59.48
2023-05-14T22:28:02.158Z,59.87
2023-05-14T22:30:35.415Z,59.92
2023-05-14T22:33:08.778Z,60.04
2023-05-14T22:35:41.887Z,60.91
2023-05-14T22:38:15.089Z,60.54
2023-05-14T22:40:48.338Z,60.62
2023-05-14T22:43:21.531Z,60.97
2023-05-14T22:45:54.845Z,60.47
2023-05-14T22:48:28.170Z,60.50
2023-05-14T22:51:01.311Z,61.08
2023-05-14T22:53:34.518Z,61.72
2023-05-14T22:56:08.842Z,61.32
2023-05-14T22:58:42.084Z,61.91
2023-05-14T23:01:15.410Z,61.42
2023-05-14T23:03:48.686Z,62.72
2023-05-14T23:06:21.755Z,62.94
2023-05-14T23:08:55.003Z,62.97
2023-05-14T23:11:29.894Z,62.34
2023-05-14T23:14:03.197Z,61.88
2023-05-14T23:16:36.592Z,62.17
2023-05-14T23:19:09.973Z,62.18
2023-05-14T23:21:43.850Z,61.98
2023-05-14T23:24:17.083Z,61.75
2023-05-14T23:26:50.406Z,62.62
2023-05-14T23:29:23.733Z,62.20
2023-05-14T23:31:57.140Z,62.62
2023-05-14T23:34:30.353Z,62.81
2023-05-14T23:37:03.383Z,62.25
2023-05-14T23:39:36.734Z,63.16
2023-05-14T23:42:10.136Z,63.58
2023-05-14T23:44:43.477Z,63.82
2023-05-14T23:47:17.191Z,63.28
2023-05-14T23:49:50.485Z,63.36
2023-05-14T23:52:23.652Z,63.48
2023-05-14T23:54:56.945Z,63.64
2023-05-14T23:57:30.506Z,64.37
